Monitor, WA

5:12 PM PDT on July 27, 2016 (GMT -0700)
Upper Yaksum Cyn | | Change Station

Elev 1243 ft 47.48 °N, 120.47 °W | Updated 16 seconds ago

Clear
Clear
94.1 °F
Feels Like 91 °F
N
0.2
Wind Variable Wind from WNW
Gusts 2.5 mph

Today
High -- | Low -- °F
--% Chance of Precip.
Yesterday
High -- | Low -- °F
Precip. -- in
Pressure 29.93 in
Visibility 10.0 miles
Clouds Clear
Heat Index 91 °F
Dew Point 48 °F
Humidity 21%
Rainfall 0.00 in
Snow Depth Not available.
5:34 AM 8:41 PM
Last Quarter, 38% visible
METAR KEAT 272355Z AUTO 09005KT 10SM CLR 35/11 A2996 RMK AO2 SLP133 T03500106 10350 20272 56015
Pressure 29.93 in
Visibility 10.0 miles
Clouds Clear
Heat Index 91 °F
Dew Point 48 °F
Humidity 21%
Rainfall 0.00 in
Snow Depth Not available.
5:34 AM 8:41 PM
Last Quarter, 38% visible
METAR KEAT 272355Z AUTO 09005KT 10SM CLR 35/11 A2996 RMK AO2 SLP133 T03500106 10350 20272 56015

10-Day Weather Forecast

Almanac

Astronomy

Jul. 27, 2016 Rise Set
Actual Time
Civil Twilight
Nautical Twilight
Astronomical Twilight
Moon
Length of Visible Light
Length of Day
Tomorrow will be .
, % of the Moon is Illuminated

Today's Extremes

State Highs State Lows

Community

WunderPhotos

Upload Photos

1,927,974 photos uploaded!

WunderBlog® & News

Nearby

Air Quality

  Air Quality AQ Index Pollutant
Not available.

Snow Depth

Station Depth Elevation

Earthquake Activity

City Distance Mag. Time & Date
Minimum magnitude displayed is 2.5.

Coastal Water Temperatures

Place Temperature

Stations

Nearby Weather Stations

Station Location Temp. Windchill Dew Point Humidity Wind Precip. Elev Updated Type
                   

Watches & Warnings

There are currently no watches in effect.